Time;durP1;ratioP1;P1;durP2;ratioP2;P2;SDS_P1;SDS_P2;PMS_P1;PMS_P2;Temp;Humidity;BMP_temperature;BMP_pressure;BME280_temperature;BME280_humidity;BME280_pressure;Samples;Min_cycle;Max_cycle;Signal;HPM_P1;HPM_P2
2021/05/30 00:00:06;;;;;;;4.77;3.60;;;;;;;6.27;89.36;101715.13;4939527;28;20207;-71
2021/05/30 00:02:35;;;;;;;5.87;3.10;;;;;;;6.23;90.18;101712.50;4951365;28;20702;-69
2021/05/30 00:05:01;;;;;;;5.00;4.07;;;;;;;6.18;90.33;101719.38;4958601;28;20226;-70
2021/05/30 00:07:27;;;;;;;5.03;3.20;;;;;;;6.14;90.31;101716.72;4955640;28;20204;-70
2021/05/30 00:09:54;;;;;;;6.93;3.40;;;;;;;6.09;90.64;101721.00;4957035;28;20253;-71
2021/05/30 00:12:21;;;;;;;3.97;3.23;;;;;;;6.08;90.79;101720.13;4960584;28;20253;-71
2021/05/30 00:15:43;;;;;;;5.47;3.30;;;;;;;6.05;91.43;101720.97;4948874;28;20225;-71
2021/05/30 00:18:09;;;;;;;6.47;3.03;;;;;;;6.04;91.38;101716.63;4961203;28;20198;-71
2021/05/30 00:20:35;;;;;;;4.70;3.40;;;;;;;6.03;91.64;101719.22;4953390;28;20253;-70
2021/05/30 00:23:01;;;;;;;4.17;3.23;;;;;;;6.03;92.79;101716.63;4958931;28;20763;-70
2021/05/30 00:25:27;;;;;;;5.90;2.97;;;;;;;5.98;92.83;101718.28;4955989;28;20249;-71
2021/05/30 00:27:53;;;;;;;5.10;3.30;;;;;;;5.94;92.83;101719.09;4958721;28;20201;-70
2021/05/30 00:30:20;;;;;;;4.57;3.03;;;;;;;5.90;92.94;101717.34;4943211;28;20555;-71
2021/05/30 00:32:47;;;;;;;5.70;3.10;;;;;;;5.88;92.79;101723.34;4949620;28;21110;-70
2021/05/30 00:35:15;;;;;;;4.40;3.20;;;;;;;5.86;93.33;101726.78;4954403;28;20229;-70
2021/05/30 00:37:41;;;;;;;5.33;3.27;;;;;;;5.81;93.38;101726.72;4950545;28;20206;-71
2021/05/30 00:40:07;;;;;;;4.47;3.50;;;;;;;5.78;93.24;101728.41;4955670;28;20206;-71
2021/05/30 00:42:33;;;;;;;5.90;3.87;;;;;;;5.79;93.95;101730.16;4957171;28;20715;-70
2021/05/30 00:44:59;;;;;;;3.57;2.90;;;;;;;5.77;93.90;101729.25;4951033;28;20226;-72
2021/05/30 00:47:25;;;;;;;4.23;3.20;;;;;;;5.74;94.48;101724.06;4949528;28;20671;-71
2021/05/30 00:49:51;;;;;;;6.30;3.37;;;;;;;5.66;94.62;101721.38;4958074;28;20198;-71
2021/05/30 00:52:18;;;;;;;5.63;3.27;;;;;;;5.64;94.95;101723.06;4955230;28;20198;-71
2021/05/30 00:54:44;;;;;;;6.70;3.87;;;;;;;5.62;95.32;101724.78;4938455;28;20616;-71
2021/05/30 00:57:11;;;;;;;5.33;3.93;;;;;;;5.60;95.88;101731.66;4942413;28;20241;-71
2021/05/30 00:59:37;;;;;;;6.03;3.50;;;;;;;5.62;96.40;101735.13;4949542;28;20218;-71
2021/05/30 01:02:04;;;;;;;7.03;3.90;;;;;;;5.53;95.80;101728.13;4949432;28;20210;-71
2021/05/30 01:04:30;;;;;;;3.83;3.17;;;;;;;5.51;96.05;101722.06;4946515;28;20592;-71
2021/05/30 01:06:58;;;;;;;4.93;3.43;;;;;;;5.50;96.63;101730.66;4946970;28;20217;-71
2021/05/30 01:13:13;;;;;;;6.00;3.33;;;;;;;5.38;96.24;101743.44;4951559;28;20552;-71
2021/05/30 01:15:40;;;;;;;3.80;3.20;;;;;;;5.37;97.15;101745.16;4951098;28;20235;-71
2021/05/30 01:18:07;;;;;;;4.73;3.40;;;;;;;5.29;97.38;101741.59;4959884;28;20282;-71
2021/05/30 01:20:33;;;;;;;6.47;3.60;;;;;;;5.23;97.10;101742.38;4956163;28;20195;-71
2021/05/30 01:23:05;;;;;;;6.10;3.70;;;;;;;5.25;98.70;101738.09;4940169;28;20366;-72
2021/05/30 01:25:31;;;;;;;5.93;3.30;;;;;;;5.22;99.20;101742.38;4941090;28;20219;-72
2021/05/30 01:27:58;;;;;;;4.67;3.03;;;;;;;5.16;99.56;101748.31;4951925;28;20304;-72
2021/05/30 01:30:24;;;;;;;5.80;3.50;;;;;;;5.09;99.14;101751.66;4956371;28;20202;-70
2021/05/30 01:32:51;;;;;;;4.40;3.53;;;;;;;5.07;99.64;101756.81;4948494;28;20568;-69
2021/05/30 01:35:18;;;;;;;5.40;3.83;;;;;;;5.07;100.00;101749.06;4936885;28;20233;-70
2021/05/30 01:37:45;;;;;;;4.80;3.40;;;;;;;5.07;100.00;101748.19;4955057;28;20213;-71
2021/05/30 01:40:13;;;;;;;4.90;3.67;;;;;;;4.95;100.00;101754.06;4941174;28;20206;-71
2021/05/30 01:42:39;;;;;;;5.53;3.37;;;;;;;4.92;100.00;101754.00;4951197;28;20198;-71
2021/05/30 01:45:06;;;;;;;5.53;3.93;;;;;;;4.88;100.00;101755.66;4951377;28;20237;-70
2021/05/30 01:47:36;;;;;;;5.83;3.87;;;;;;;4.95;100.00;101753.19;4940922;28;20202;-71
2021/05/30 01:50:02;;;;;;;5.20;3.57;;;;;;;4.94;100.00;101757.47;4961188;28;20285;-71
2021/05/30 01:59:03;;;;;;;4.93;3.73;;;;;;;4.82;100.00;101755.59;4951435;28;20202;-71
2021/05/30 02:05:16;;;;;;;5.00;3.87;;;;;;;4.70;100.00;101750.22;4953352;28;20761;-71
2021/05/30 02:07:43;;;;;;;6.17;3.83;;;;;;;4.80;100.00;101756.38;4958826;28;20245;-71
2021/05/30 02:10:11;;;;;;;6.57;3.80;;;;;;;4.54;100.00;101764.59;4954532;28;20215;-71
2021/05/30 02:20:15;;;;;;;6.10;4.13;;;;;;;4.30;100.00;101768.47;4957135;28;20198;-71
2021/05/30 02:22:41;;;;;;;9.23;4.60;;;;;;;4.34;100.00;101769.41;4957812;28;20206;-71
2021/05/30 02:25:10;;;;;;;5.97;4.13;;;;;;;4.35;100.00;101769.44;4954622;28;20215;-71
2021/05/30 02:27:36;;;;;;;7.73;3.73;;;;;;;4.43;100.00;101766.13;4949104;28;20631;-70
2021/05/30 02:30:04;;;;;;;5.30;4.07;;;;;;;4.52;100.00;101771.44;4947910;28;20203;-71
2021/05/30 02:32:30;;;;;;;6.13;4.03;;;;;;;4.45;100.00;101767.00;4946754;28;20199;-71
2021/05/30 02:34:56;;;;;;;5.40;3.80;;;;;;;4.44;100.00;101773.91;4963817;28;20226;-71
2021/05/30 02:37:23;;;;;;;6.17;4.00;;;;;;;4.31;100.00;101770.22;4957197;28;20197;-71
2021/05/30 02:39:49;;;;;;;6.97;4.40;;;;;;;4.25;100.00;101767.53;4955634;28;20206;-70
2021/05/30 02:42:15;;;;;;;4.87;3.77;;;;;;;4.19;100.00;101775.19;4956711;28;20565;-71
2021/05/30 02:44:41;;;;;;;6.07;4.23;;;;;;;4.30;100.00;101770.19;4955330;28;20600;-71
2021/05/30 02:47:07;;;;;;;6.70;4.50;;;;;;;4.15;100.00;101781.09;4955440;28;20245;-71
2021/05/30 02:49:34;;;;;;;6.70;4.47;;;;;;;4.11;100.00;101775.00;4956790;28;20556;-71
2021/05/30 02:52:00;;;;;;;5.70;4.00;;;;;;;3.97;100.00;101779.03;4947995;28;20207;-71
2021/05/30 02:54:28;;;;;;;6.70;4.10;;;;;;;4.04;100.00;101785.19;4954227;28;20226;-71
2021/05/30 02:56:54;;;;;;;6.50;4.47;;;;;;;3.81;100.00;101784.75;4955064;28;20201;-71
2021/05/30 02:59:20;;;;;;;6.93;4.37;;;;;;;3.74;100.00;101791.50;4956216;28;20242;-71
2021/05/30 03:01:46;;;;;;;7.07;4.70;;;;;;;3.57;100.00;101791.13;4941505;28;20857;-71
2021/05/30 03:04:12;;;;;;;6.53;3.80;;;;;;;3.68;100.00;101788.81;4946313;28;20226;-70
2021/05/30 03:06:38;;;;;;;6.27;4.10;;;;;;;3.72;100.00;101793.16;4964413;28;20210;-71
2021/05/30 03:09:05;;;;;;;5.87;4.27;;;;;;;3.64;100.00;101795.59;4959568;28;20561;-70
2021/05/30 03:11:31;;;;;;;6.03;3.83;;;;;;;3.60;100.00;101791.19;4953659;28;20199;-71
2021/05/30 03:13:58;;;;;;;6.10;4.30;;;;;;;3.75;100.00;101799.25;4951707;28;20257;-71
2021/05/30 03:16:24;;;;;;;7.40;4.73;;;;;;;3.61;100.00;101790.38;4956103;28;20202;-71
2021/05/30 03:18:50;;;;;;;5.90;4.27;;;;;;;3.73;100.00;101800.94;4961625;28;20317;-71
2021/05/30 03:21:17;;;;;;;7.33;4.40;;;;;;;3.88;100.00;101795.22;4959087;28;20281;-71
2021/05/30 03:23:43;;;;;;;7.20;4.87;;;;;;;3.85;100.00;101797.72;4967728;28;20225;-71
2021/05/30 03:26:09;;;;;;;6.30;4.37;;;;;;;3.94;100.00;101800.50;4940241;29;20620;-71
2021/05/30 03:28:37;;;;;;;6.43;4.87;;;;;;;3.95;100.00;101807.41;4943484;28;20382;-71
2021/05/30 03:31:03;;;;;;;7.87;4.73;;;;;;;3.89;100.00;101816.75;4941840;29;20198;-71
2021/05/30 03:33:29;;;;;;;7.83;4.77;;;;;;;3.79;100.00;101810.50;4959813;28;20207;-71
2021/05/30 03:35:58;;;;;;;7.90;5.33;;;;;;;3.83;100.00;101809.72;4958833;28;20223;-71
2021/05/30 03:38:26;;;;;;;7.23;5.00;;;;;;;3.82;100.00;101802.84;4957166;28;20222;-71
2021/05/30 03:41:00;;;;;;;8.00;5.00;;;;;;;3.90;100.00;101803.84;4949914;28;20222;-71
2021/05/30 03:43:26;;;;;;;7.93;4.47;;;;;;;3.91;100.00;101804.75;4953263;28;20214;-71
2021/05/30 03:45:53;;;;;;;7.13;4.70;;;;;;;4.07;100.00;101808.50;4956067;28;20217;-71
2021/05/30 03:48:19;;;;;;;9.87;4.83;;;;;;;4.15;100.00;101807.81;4955429;28;20218;-71
2021/05/30 03:50:49;;;;;;;7.50;5.27;;;;;;;4.20;100.00;101813.03;4943394;28;20207;-71
2021/05/30 03:53:15;;;;;;;9.20;4.53;;;;;;;4.25;100.00;101810.56;4952983;28;20289;-71
2021/05/30 03:55:41;;;;;;;7.50;4.97;;;;;;;4.29;100.00;101814.94;4963166;28;20230;-71
2021/05/30 03:58:07;;;;;;;8.90;5.67;;;;;;;4.39;100.00;101813.41;4951118;28;20211;-71
2021/05/30 04:00:33;;;;;;;7.40;5.17;;;;;;;4.42;100.00;101816.03;4959083;28;20694;-69
2021/05/30 04:03:00;;;;;;;11.43;5.43;;;;;;;4.46;100.00;101810.94;4963183;28;20217;-71
2021/05/30 04:05:26;;;;;;;8.97;5.47;;;;;;;4.55;100.00;101815.41;4953211;28;20593;-71
2021/05/30 04:07:52;;;;;;;8.57;5.47;;;;;;;4.66;100.00;101813.91;4938477;28;20239;-71
2021/05/30 04:10:18;;;;;;;9.43;5.60;;;;;;;4.86;100.00;101811.63;4934123;29;20202;-71
2021/05/30 04:12:44;;;;;;;8.43;5.43;;;;;;;5.01;100.00;101813.59;4955535;28;20284;-71
2021/05/30 04:15:12;;;;;;;8.60;6.13;;;;;;;5.14;100.00;101814.66;4953932;28;20218;-71
2021/05/30 04:17:39;;;;;;;9.93;6.13;;;;;;;5.25;100.00;101807.91;4956038;28;20198;-71
2021/05/30 04:20:08;;;;;;;10.50;6.67;;;;;;;5.35;100.00;101805.47;4954578;28;20199;-71
2021/05/30 04:22:34;;;;;;;9.47;6.63;;;;;;;5.42;100.00;101807.31;4934839;28;20210;-71
2021/05/30 04:25:00;;;;;;;11.60;6.73;;;;;;;5.42;100.00;101809.91;4950116;28;20238;-71
2021/05/30 04:27:26;;;;;;;11.20;7.53;;;;;;;5.47;100.00;101803.94;4937637;28;20194;-70
2021/05/30 04:29:52;;;;;;;14.27;7.10;;;;;;;5.50;100.00;101806.56;4951042;28;20203;-71
2021/05/30 04:32:18;;;;;;;10.70;6.17;;;;;;;5.66;100.00;101812.81;4956783;28;20287;-72
2021/05/30 04:34:44;;;;;;;14.37;6.73;;;;;;;5.82;100.00;101808.72;4940825;28;20237;-71
2021/05/30 04:37:10;;;;;;;11.63;6.03;;;;;;;6.04;100.00;101811.56;4957760;28;20252;-70
2021/05/30 04:39:36;;;;;;;9.53;6.10;;;;;;;6.10;100.00;101806.44;4958538;28;20206;-71
2021/05/30 04:42:03;;;;;;;11.40;6.07;;;;;;;6.21;100.00;101812.63;4954715;28;20672;-71
2021/05/30 04:44:29;;;;;;;9.80;6.43;;;;;;;6.21;100.00;101817.81;4946944;28;20215;-69
2021/05/30 04:46:56;;;;;;;10.47;6.40;;;;;;;6.27;100.00;101817.00;4954659;28;20191;-71
2021/05/30 04:49:22;;;;;;;9.20;6.43;;;;;;;6.36;99.34;101813.66;4955842;28;20206;-70
2021/05/30 04:51:48;;;;;;;10.57;6.10;;;;;;;6.48;98.77;101812.91;4955907;28;20226;-70
2021/05/30 04:54:14;;;;;;;9.67;5.70;;;;;;;6.53;96.94;101813.81;4953047;28;20237;-69
2021/05/30 04:56:40;;;;;;;9.20;5.90;;;;;;;6.70;97.26;101822.63;4953404;28;20199;-71
2021/05/30 04:59:06;;;;;;;7.93;5.93;;;;;;;6.86;96.80;101822.72;4952637;28;20210;-71
2021/05/30 05:01:32;;;;;;;9.00;6.10;;;;;;;6.99;96.45;101820.25;4951974;28;20572;-71
2021/05/30 05:03:58;;;;;;;7.63;5.57;;;;;;;7.09;95.87;101821.22;4953415;28;20213;-71
2021/05/30 05:06:25;;;;;;;6.57;5.43;;;;;;;7.18;95.23;101828.19;4954630;28;20280;-70
2021/05/30 05:08:52;;;;;;;9.10;6.07;;;;;;;7.24;94.43;101822.16;4954438;28;20217;-70
2021/05/30 05:11:20;;;;;;;8.27;6.00;;;;;;;7.34;94.52;101823.97;4947721;28;20305;-71
2021/05/30 05:13:46;;;;;;;7.70;5.17;;;;;;;7.52;94.25;101823.22;4937627;28;20277;-70
2021/05/30 05:16:12;;;;;;;8.50;5.23;;;;;;;7.61;93.77;101822.38;4930010;28;20231;-71
2021/05/30 05:18:39;;;;;;;7.23;5.47;;;;;;;7.67;93.76;101827.59;4951934;28;20201;-71
2021/05/30 05:21:06;;;;;;;8.93;5.43;;;;;;;7.72;93.19;101824.19;4926632;28;20219;-71
2021/05/30 05:23:33;;;;;;;6.53;5.03;;;;;;;7.87;92.56;101833.75;4953508;28;20194;-71
2021/05/30 05:26:02;;;;;;;7.80;5.57;;;;;;;7.91;92.20;101832.03;4952362;28;20285;-72
2021/05/30 05:28:30;;;;;;;7.10;5.80;;;;;;;7.97;91.83;101821.69;4955165;28;20199;-71
2021/05/30 05:30:56;;;;;;;7.80;5.10;;;;;;;8.11;91.75;101822.59;4949450;28;20234;-71
2021/05/30 05:33:23;;;;;;;8.20;5.53;;;;;;;8.19;91.62;101830.41;4942248;28;20203;-71
2021/05/30 05:35:50;;;;;;;7.43;5.50;;;;;;;8.26;90.98;101829.56;4938697;28;20246;-71
2021/05/30 05:38:17;;;;;;;8.67;5.47;;;;;;;8.29;90.84;101832.19;4949852;28;20202;-71
2021/05/30 05:40:43;;;;;;;8.20;5.10;;;;;;;8.46;90.11;101834.84;4950356;28;20321;-71
2021/05/30 05:43:09;;;;;;;8.60;5.50;;;;;;;8.54;89.61;101824.47;4946348;28;20440;-72
2021/05/30 05:45:37;;;;;;;7.03;5.77;;;;;;;8.56;88.17;101834.88;4950421;28;20234;-71
2021/05/30 05:48:09;;;;;;;7.57;5.03;;;;;;;8.70;88.99;101833.16;4955236;28;20186;-72
2021/05/30 05:50:35;;;;;;;6.93;4.70;;;;;;;8.85;88.85;101837.50;4931190;28;20211;-72
2021/05/30 05:53:01;;;;;;;8.10;5.20;;;;;;;8.73;86.71;101842.69;4947661;28;20207;-70
2021/05/30 05:55:27;;;;;;;7.80;4.73;;;;;;;8.82;88.30;101835.75;4948720;28;20301;-70
2021/05/30 05:57:53;;;;;;;14.13;7.63;;;;;;;8.98;86.70;101835.75;4960775;28;20202;-70
2021/05/30 06:00:22;;;;;;;17.97;8.17;;;;;;;9.06;86.37;101839.25;4946720;28;20230;-71
2021/05/30 06:02:51;;;;;;;10.37;5.67;;;;;;;9.22;86.53;101837.50;4941990;28;20210;-72
2021/05/30 06:05:18;;;;;;;9.80;5.30;;;;;;;9.28;85.36;101833.13;4951077;28;20227;-71
2021/05/30 06:07:45;;;;;;;7.40;5.40;;;;;;;9.23;84.12;101842.69;4956016;28;20214;-71
2021/05/30 06:10:12;;;;;;;8.17;5.50;;;;;;;9.32;84.99;101841.78;4954808;28;20231;-72
2021/05/30 06:12:38;;;;;;;6.93;5.00;;;;;;;9.39;83.98;101840.94;4947585;28;20208;-71
2021/05/30 06:15:06;;;;;;;5.17;4.13;;;;;;;9.56;83.93;101842.63;4948429;28;20231;-71
2021/05/30 06:17:32;;;;;;;5.47;4.13;;;;;;;9.57;82.77;101850.44;4948628;28;20704;-72
2021/05/30 06:19:59;;;;;;;6.40;3.90;;;;;;;9.78;81.08;101856.44;4949127;28;20217;-72
2021/05/30 06:22:27;;;;;;;4.37;3.60;;;;;;;9.81;81.46;101853.81;4949545;28;20196;-70
2021/05/30 06:24:53;;;;;;;6.07;3.67;;;;;;;9.83;81.04;101865.09;4949697;28;20237;-71
2021/05/30 06:27:19;;;;;;;4.70;3.83;;;;;;;9.68;79.94;101857.34;4930270;29;20595;-70
2021/05/30 06:29:45;;;;;;;6.87;4.03;;;;;;;9.60;80.92;101865.16;4956943;28;20217;-72
2021/05/30 06:32:11;;;;;;;4.27;3.23;;;;;;;9.78;80.84;101861.66;4955232;28;20213;-72
2021/05/30 06:34:37;;;;;;;4.53;3.30;;;;;;;9.94;79.19;101868.56;4952209;28;20230;-71
2021/05/30 06:37:04;;;;;;;4.33;3.17;;;;;;;9.92;78.34;101866.81;4949869;28;20274;-72
2021/05/30 06:39:30;;;;;;;5.23;3.50;;;;;;;9.92;79.28;101872.91;4946973;28;20219;-72
2021/05/30 06:41:56;;;;;;;9.80;3.77;;;;;;;9.83;79.91;101871.19;4945707;28;20225;-71
2021/05/30 06:44:22;;;;;;;5.03;3.63;;;;;;;9.73;79.78;101861.69;4943580;28;20241;-72
2021/05/30 06:46:48;;;;;;;6.23;3.50;;;;;;;9.76;78.57;101868.59;4949544;28;20202;-72
2021/05/30 06:49:14;;;;;;;4.80;3.07;;;;;;;10.08;77.40;101872.81;4949937;28;20287;-72
2021/05/30 06:51:41;;;;;;;4.40;2.80;;;;;;;10.27;76.07;101876.22;4941799;28;20206;-71
2021/05/30 06:54:09;;;;;;;3.53;3.07;;;;;;;10.55;76.58;101874.34;4951246;28;20206;-72
2021/05/30 06:56:35;;;;;;;4.17;2.67;;;;;;;10.74;74.37;101870.75;4952138;28;20202;-71
2021/05/30 06:59:01;;;;;;;3.37;2.50;;;;;;;11.06;73.12;101879.22;4955201;28;20212;-71
2021/05/30 07:01:27;;;;;;;3.57;2.60;;;;;;;11.17;72.57;101883.47;4920289;28;20206;-71
2021/05/30 07:03:53;;;;;;;2.70;2.40;;;;;;;11.53;71.73;101877.94;4929824;28;20203;-71
2021/05/30 07:06:22;;;;;;;4.30;2.20;;;;;;;11.35;69.73;101892.03;4952284;28;20627;-72
2021/05/30 07:08:49;;;;;;;3.00;2.27;;;;;;;11.21;71.29;101891.28;4956475;28;20669;-72
2021/05/30 07:11:16;;;;;;;4.17;2.20;;;;;;;11.47;70.40;101891.91;4949762;28;20210;-71
2021/05/30 07:13:42;;;;;;;2.40;2.20;;;;;;;11.86;67.96;101895.00;4951938;28;20207;-71
2021/05/30 07:16:09;;;;;;;3.73;2.10;;;;;;;11.77;68.58;101895.09;4952599;28;20231;-72
2021/05/30 07:18:35;;;;;;;6.20;2.10;;;;;;;11.52;68.64;101907.53;4949642;28;20203;-72
2021/05/30 07:21:01;;;;;;;3.23;2.27;;;;;;;11.45;69.19;101901.53;4951322;28;20198;-72
2021/05/30 07:23:27;;;;;;;3.20;2.30;;;;;;;11.67;69.05;101903.91;4938364;28;20227;-72
2021/05/30 07:25:54;;;;;;;3.47;1.83;;;;;;;11.54;69.16;101903.19;4954680;28;20696;-72
2021/05/30 07:28:22;;;;;;;2.70;2.10;;;;;;;11.35;69.20;101908.56;4940286;28;20210;-72
2021/05/30 07:30:48;;;;;;;2.93;2.27;;;;;;;11.46;68.50;101905.00;4953787;28;20198;-72
2021/05/30 07:33:14;;;;;;;3.20;2.20;;;;;;;11.53;67.87;101917.09;4934408;28;20212;-69
2021/05/30 07:35:40;;;;;;;2.50;1.90;;;;;;;11.45;68.17;101905.84;4953414;28;20230;-71
2021/05/30 07:38:07;;;;;;;2.00;1.80;;;;;;;11.38;67.80;101907.69;4954252;28;20294;-72
2021/05/30 07:40:34;;;;;;;2.73;1.90;;;;;;;11.47;68.61;101911.94;4934458;28;20220;-71
2021/05/30 07:43:01;;;;;;;2.43;1.57;;;;;;;11.50;67.53;101907.56;4954215;28;20305;-72
2021/05/30 07:45:28;;;;;;;2.37;1.70;;;;;;;11.34;67.55;101903.34;4946329;28;20230;-72
2021/05/30 07:47:55;;;;;;;2.10;1.90;;;;;;;11.42;67.25;101911.97;4944027;28;20627;-72
2021/05/30 07:50:21;;;;;;;2.07;1.87;;;;;;;11.20;67.83;101911.28;4933356;29;20259;-72
2021/05/30 07:52:47;;;;;;;2.17;1.80;;;;;;;11.15;67.13;101898.28;4953844;28;20217;-72
2021/05/30 07:55:14;;;;;;;2.50;1.63;;;;;;;11.28;66.38;101916.47;4951789;28;20239;-71
2021/05/30 07:57:40;;;;;;;2.33;1.50;;;;;;;11.33;66.46;101914.69;4948429;28;20206;-71
2021/05/30 08:00:08;;;;;;;1.83;1.40;;;;;;;11.44;67.08;101915.44;4955602;28;20205;-71
2021/05/30 08:02:39;;;;;;;2.20;1.90;;;;;;;11.41;67.05;101914.59;4949643;28;20219;-72
2021/05/30 08:05:07;;;;;;;2.27;1.80;;;;;;;11.44;66.50;101910.22;4948300;28;20239;-71
2021/05/30 08:07:33;;;;;;;2.00;1.80;;;;;;;11.60;67.29;101918.78;4949653;28;20209;-72
2021/05/30 08:09:59;;;;;;;2.70;1.90;;;;;;;11.63;66.53;101913.53;4945171;28;20243;-71
2021/05/30 08:12:26;;;;;;;3.60;1.70;;;;;;;11.81;66.97;101916.84;4950364;28;20214;-69
2021/05/30 08:14:52;;;;;;;1.90;1.73;;;;;;;12.08;66.23;101915.69;4953655;28;20224;-71
2021/05/30 08:17:18;;;;;;;2.00;1.70;;;;;;;12.40;65.03;101920.53;4962001;28;20289;-72
2021/05/30 08:19:45;;;;;;;2.50;1.63;;;;;;;12.35;65.18;101919.72;4972201;28;20217;-71
2021/05/30 08:22:11;;;;;;;3.13;1.83;;;;;;;12.68;65.02;101915.78;4968955;28;20203;-71
2021/05/30 08:24:37;;;;;;;3.20;1.73;;;;;;;12.90;63.06;101922.44;4972643;28;20700;-70
2021/05/30 08:27:04;;;;;;;5.17;2.00;;;;;;;13.15;62.85;101921.16;4968648;28;20254;-73
2021/05/30 08:29:30;;;;;;;2.00;1.73;;;;;;;13.32;61.60;101914.81;4968552;28;21112;-72
2021/05/30 08:31:57;;;;;;;2.53;1.60;;;;;;;13.20;61.92;101926.31;4968001;28;20201;-72
2021/05/30 08:34:24;;;;;;;2.50;1.90;;;;;;;13.07;62.45;101916.06;4966340;28;20225;-72
2021/05/30 08:36:52;;;;;;;1.60;1.50;;;;;;;13.46;61.93;101922.44;4970650;28;20662;-72
2021/05/30 08:39:18;;;;;;;2.53;1.80;;;;;;;13.57;60.87;101923.97;4983655;28;20207;-72
2021/05/30 08:41:44;;;;;;;2.50;1.73;;;;;;;13.50;60.75;101931.97;4968880;28;20205;-72
2021/05/30 08:44:11;;;;;;;2.70;2.03;;;;;;;13.48;61.57;101920.66;4962862;28;20201;-72
2021/05/30 08:46:38;;;;;;;2.13;1.80;;;;;;;13.63;61.84;101922.97;4970046;28;20209;-72
2021/05/30 08:49:05;;;;;;;2.23;1.80;;;;;;;13.83;60.61;101927.88;4965058;28;20270;-71
2021/05/30 08:51:31;;;;;;;3.20;2.03;;;;;;;13.74;59.98;101928.06;4969479;28;20731;-72
2021/05/30 08:53:59;;;;;;;3.63;1.77;;;;;;;13.49;60.45;101930.22;4964975;28;20202;-72
2021/05/30 08:56:25;;;;;;;2.20;1.80;;;;;;;13.82;61.49;101931.38;4969957;28;20721;-72
2021/05/30 08:58:52;;;;;;;2.17;1.90;;;;;;;14.08;60.66;101930.88;4966406;28;20206;-72
2021/05/30 09:01:20;;;;;;;2.80;1.90;;;;;;;13.85;59.06;101936.56;4965792;28;20620;-72
2021/05/30 09:03:51;;;;;;;2.83;1.50;;;;;;;13.85;61.28;101928.69;4966977;28;20244;-72
2021/05/30 09:06:19;;;;;;;1.93;1.70;;;;;;;14.07;59.99;101937.03;4964329;28;20266;-71
2021/05/30 09:08:45;;;;;;;2.97;1.93;;;;;;;13.86;60.23;101940.94;4966135;28;20228;-71
2021/05/30 09:11:12;;;;;;;2.33;2.10;;;;;;;13.60;61.33;101934.41;4967795;28;20196;-71
2021/05/30 09:14:00;;;;;;;2.83;2.10;;;;;;;13.87;59.45;101940.00;4962721;28;20254;-72
2021/05/30 09:16:46;;;;;;;1.90;1.60;;;;;;;14.02;59.63;101928.38;4967329;28;20230;-70
2021/05/30 09:19:42;;;;;;;6.53;4.67;;;;;;;14.24;60.08;101933.19;4968800;28;20232;-71
2021/05/30 09:22:24;;;;;;;2.43;1.77;;;;;;;14.21;58.78;101931.47;4965491;28;20210;-71
2021/05/30 09:25:04;;;;;;;3.00;2.10;;;;;;;14.24;58.63;101931.41;4979032;28;20226;-71
2021/05/30 09:27:32;;;;;;;2.83;1.90;;;;;;;14.10;59.55;101936.94;4966133;28;20714;-71
2021/05/30 09:30:10;;;;;;;3.27;1.80;;;;;;;14.32;58.22;101939.16;4966916;28;20851;-71
2021/05/30 09:33:02;;;;;;;2.80;1.73;;;;;;;14.46;57.30;101936.19;4964579;28;20245;-71
2021/05/30 09:35:42;;;;;;;2.00;1.70;;;;;;;14.19;57.78;101942.03;4968362;28;20236;-71
2021/05/30 09:38:12;;;;;;;2.10;1.90;;;;;;;14.29;58.13;101934.81;4967085;28;20202;-72
2021/05/30 09:40:39;;;;;;;2.13;1.90;;;;;;;14.57;59.75;101921.97;4965273;28;20205;-72
2021/05/30 09:43:08;;;;;;;4.80;3.77;;;;;;;15.20;57.32;101929.31;4969487;28;20199;-72
2021/05/30 09:45:36;;;;;;;8.17;5.57;;;;;;;15.34;54.69;101933.31;4963348;28;20665;-71
2021/05/30 09:48:04;;;;;;;4.40;3.17;;;;;;;15.15;56.00;101937.31;4965163;28;20285;-72
2021/05/30 09:50:34;;;;;;;3.37;2.30;;;;;;;15.36;55.26;101937.69;4964446;28;20200;-71
2021/05/30 09:53:01;;;;;;;6.03;4.33;;;;;;;15.20;55.80;101940.69;4969504;28;20267;-72
2021/05/30 09:55:29;;;;;;;3.13;2.03;;;;;;;14.94;54.67;101943.94;4983046;28;20256;-71
2021/05/30 09:58:09;;;;;;;6.07;3.30;;;;;;;14.91;55.99;101933.47;4973189;28;20198;-71
2021/05/30 10:00:35;;;;;;;6.00;3.40;;;;;;;15.00;56.48;101928.00;4963743;28;20209;-71
2021/05/30 10:03:02;;;;;;;4.07;1.70;;;;;;;14.98;54.27;101945.56;4965557;28;20212;-72
2021/05/30 10:05:28;;;;;;;2.17;1.97;;;;;;;14.88;54.74;101936.19;4968841;28;20221;-72
2021/05/30 10:07:56;;;;;;;4.37;2.50;;;;;;;14.88;55.25;101936.19;4964989;28;20197;-72
2021/05/30 10:10:22;;;;;;;7.07;4.53;;;;;;;15.13;54.67;101925.97;4971769;28;20229;-72
2021/05/30 10:12:50;;;;;;;2.47;2.00;;;;;;;15.43;54.26;101940.09;4967210;28;20198;-72
2021/05/30 10:15:17;;;;;;;2.67;1.77;;;;;;;15.17;53.25;101937.25;4969186;28;20237;-72
2021/05/30 10:17:44;;;;;;;4.93;2.80;;;;;;;15.31;52.49;101935.16;4973574;28;20205;-72
2021/05/30 10:20:14;;;;;;;2.77;1.73;;;;;;;15.44;54.30;101920.81;4969411;28;20208;-71
2021/05/30 10:22:42;;;;;;;2.53;1.50;;;;;;;15.41;53.77;101926.13;4971110;28;20206;-72
2021/05/30 10:25:09;;;;;;;2.63;2.20;;;;;;;15.41;53.79;101930.50;4971958;28;20229;-73
2021/05/30 10:27:37;;;;;;;2.90;1.80;;;;;;;15.45;53.14;101940.06;4969788;28;20209;-71
2021/05/30 10:30:18;;;;;;;2.20;1.40;;;;;;;14.88;53.20;101942.31;4964690;28;20202;-72
2021/05/30 10:32:45;;;;;;;2.13;1.50;;;;;;;14.93;54.04;101936.94;4963419;28;20715;-72
2021/05/30 10:35:17;;;;;;;2.67;1.63;;;;;;;14.86;55.57;101930.09;4971057;28;20225;-73
2021/05/30 10:37:44;;;;;;;2.70;1.60;;;;;;;14.75;54.69;101925.09;4966639;28;20199;-72
2021/05/30 10:40:27;;;;;;;2.47;1.80;;;;;;;15.22;54.93;101922.25;4968217;28;20202;-71
2021/05/30 10:43:12;;;;;;;2.53;1.60;;;;;;;15.79;53.79;101923.41;4965786;28;20694;-72
2021/05/30 10:46:00;;;;;;;2.00;1.70;;;;;;;16.11;53.45;101935.66;4965184;28;20232;-70
2021/05/30 10:48:26;;;;;;;2.77;1.60;;;;;;;15.84;52.90;101922.38;4980965;28;20411;-71
2021/05/30 10:53:51;;;;;;;2.47;1.90;;;;;;;15.09;53.10;101929.56;4964969;28;20255;-72
2021/05/30 10:56:30;;;;;;;3.17;2.00;;;;;;;15.20;53.49;101929.31;4967070;28;20795;-72
2021/05/30 10:59:19;;;;;;;1.73;1.60;;;;;;;15.63;53.45;101931.69;4966730;28;20584;-72
2021/05/30 11:01:48;;;;;;;2.90;1.57;;;;;;;15.70;53.03;101924.50;4968138;28;20208;-71
2021/05/30 11:04:34;;;;;;;2.27;1.87;;;;;;;15.87;53.77;101916.19;4965666;28;20209;-72
2021/05/30 11:07:02;;;;;;;1.73;1.50;;;;;;;16.18;52.72;101920.56;4972767;28;20194;-73
2021/05/30 11:10:02;;;;;;;3.00;1.60;;;;;;;16.00;51.70;101935.97;4966035;28;20215;-73
2021/05/30 11:12:30;;;;;;;2.30;1.83;;;;;;;15.99;53.34;101915.84;4971626;28;20755;-73
2021/05/30 11:15:19;;;;;;;3.27;1.87;;;;;;;16.05;53.99;101922.69;4964432;28;20261;-72
2021/05/30 11:17:47;;;;;;;2.67;1.87;;;;;;;16.26;53.66;101918.59;4971469;28;20283;-73
2021/05/30 11:20:15;;;;;;;1.90;1.60;;;;;;;16.09;52.94;101925.22;4967801;28;20856;-72
2021/05/30 11:22:41;;;;;;;1.90;1.70;;;;;;;16.32;51.64;101915.75;4970198;28;20950;-71
2021/05/30 11:25:09;;;;;;;2.67;1.80;;;;;;;16.44;53.22;101917.16;4970995;28;20225;-73
2021/05/30 11:27:48;;;;;;;2.13;1.73;;;;;;;16.75;51.23;101916.25;4961485;28;20212;-73
2021/05/30 11:30:33;;;;;;;2.87;1.80;;;;;;;16.93;53.59;101906.91;4963420;28;20208;-72
2021/05/30 11:33:01;;;;;;;1.63;1.53;;;;;;;16.81;49.10;101926.56;4979431;28;20669;-72
2021/05/30 11:35:28;;;;;;;2.63;1.60;;;;;;;16.54;50.64;101923.88;4982821;28;20211;-71
2021/05/30 11:37:55;;;;;;;1.97;1.60;;;;;;;16.70;54.22;101910.25;4965931;28;20233;-72
2021/05/30 11:40:22;;;;;;;2.73;1.80;;;;;;;17.00;53.23;101903.16;4977201;28;20259;-72
2021/05/30 11:42:48;;;;;;;2.00;1.80;;;;;;;17.20;49.44;101913.91;4965904;28;20630;-71
2021/05/30 11:45:29;;;;;;;2.10;1.50;;;;;;;17.29;48.68;101915.38;4969937;28;20265;-71
2021/05/30 11:48:08;;;;;;;2.13;1.50;;;;;;;17.12;48.58;101913.31;4959044;28;20210;-72
2021/05/30 11:50:36;;;;;;;2.47;1.60;;;;;;;17.28;50.03;101911.00;4966707;28;20622;-72
2021/05/30 11:53:09;;;;;;;1.80;1.67;;;;;;;17.11;48.39;101923.88;4968105;28;20202;-72
2021/05/30 11:55:38;;;;;;;3.57;1.60;;;;;;;16.81;50.61;101908.97;4965111;28;20312;-71